createdAt,value
2022-11-03T00:00:12.933Z,97.64
2022-11-03T00:02:39.635Z,96.53
2022-11-03T00:05:26.283Z,96.69
2022-11-03T00:07:52.686Z,96.62
2022-11-03T00:10:19.099Z,96.34
2022-11-03T00:12:45.494Z,96.97
2022-11-03T00:15:11.905Z,96.95
2022-11-03T00:17:38.304Z,96.87
2022-11-03T00:20:05.117Z,97.04
2022-11-03T00:22:33.206Z,97.05
2022-11-03T00:24:59.867Z,97.21
2022-11-03T00:27:26.273Z,97.59
2022-11-03T00:29:52.660Z,97.74
2022-11-03T00:32:19.079Z,97.96
2022-11-03T00:34:45.487Z,98.93
2022-11-03T00:37:11.879Z,99.50
2022-11-03T00:39:38.279Z,98.93
2022-11-03T00:42:04.750Z,97.46
2022-11-03T00:44:31.258Z,98.03
2022-11-03T00:46:57.649Z,97.78
2022-11-03T00:49:24.078Z,97.12
2022-11-03T00:51:50.484Z,97.59
2022-11-03T00:54:16.923Z,97.20
2022-11-03T00:56:44.341Z,97.65
2022-11-03T00:59:10.810Z,97.68
2022-11-03T01:01:46.811Z,97.58
2022-11-03T01:04:34.668Z,97.26
2022-11-03T01:07:02.342Z,97.61
2022-11-03T01:09:35.301Z,98.61
2022-11-03T01:12:01.692Z,98.32
2022-11-03T01:14:33.156Z,98.08
2022-11-03T01:17:00.215Z,97.65
2022-11-03T01:19:26.806Z,98.64
2022-11-03T01:21:53.986Z,98.94
2022-11-03T01:24:20.694Z,98.65
2022-11-03T01:26:47.129Z,98.47
2022-11-03T01:29:13.846Z,98.28
2022-11-03T01:31:41.071Z,98.96
2022-11-03T01:34:08.890Z,98.11
2022-11-03T01:36:35.345Z,98.31
2022-11-03T01:39:01.771Z,97.05
2022-11-03T01:41:28.708Z,97.27
2022-11-03T01:44:25.692Z,97.42
2022-11-03T01:47:15.112Z,97.91
2022-11-03T01:49:50.008Z,97.74
2022-11-03T01:52:41.275Z,97.42
2022-11-03T01:55:13.582Z,97.30
2022-11-03T01:57:46.809Z,98.03
2022-11-03T02:00:13.898Z,98.06
2022-11-03T02:02:41.738Z,98.21
2022-11-03T02:05:10.583Z,99.61
2022-11-03T02:07:42.064Z,98.79
2022-11-03T02:10:09.307Z,99.42
2022-11-03T02:12:37.457Z,100.00
2022-11-03T02:15:13.705Z,99.49
2022-11-03T02:17:42.397Z,98.75
2022-11-03T02:20:20.463Z,99.69
2022-11-03T02:23:10.018Z,99.19
2022-11-03T02:25:45.649Z,99.74
2022-11-03T02:28:15.038Z,100.00
2022-11-03T02:31:00.130Z,100.00
2022-11-03T02:33:48.406Z,100.00
2022-11-03T02:36:44.518Z,99.25
2022-11-03T02:39:25.132Z,99.69
2022-11-03T02:41:54.579Z,99.19
2022-11-03T02:44:21.095Z,98.39
2022-11-03T02:46:52.047Z,98.39
2022-11-03T02:49:18.625Z,98.53
2022-11-03T02:51:45.014Z,99.63
2022-11-03T02:54:26.030Z,99.72
2022-11-03T02:57:06.090Z,98.13
2022-11-03T02:59:42.975Z,98.47
2022-11-03T03:02:13.578Z,98.56
2022-11-03T03:04:50.315Z,98.42
2022-11-03T03:07:22.275Z,97.76
2022-11-03T03:10:02.817Z,98.24
2022-11-03T03:12:34.499Z,99.12
2022-11-03T03:15:03.799Z,100.00
2022-11-03T03:17:35.662Z,100.00
2022-11-03T03:20:13.544Z,100.00
2022-11-03T03:23:00.171Z,99.90
2022-11-03T03:25:34.614Z,100.00
2022-11-03T03:28:06.241Z,100.00
2022-11-03T03:30:36.158Z,99.70
2022-11-03T03:33:05.889Z,100.00
2022-11-03T03:35:34.827Z,100.00
2022-11-03T03:38:06.139Z,100.00
2022-11-03T03:40:36.507Z,100.00
2022-11-03T03:43:06.551Z,99.71
2022-11-03T03:45:35.024Z,100.00
2022-11-03T03:48:02.655Z,100.00
2022-11-03T03:50:33.347Z,100.00
2022-11-03T03:53:05.298Z,100.00
2022-11-03T03:55:40.605Z,100.00
2022-11-03T03:58:08.174Z,100.00
2022-11-03T04:00:34.905Z,100.00
2022-11-03T04:03:01.420Z,100.00
2022-11-03T04:05:27.846Z,100.00
2022-11-03T04:07:54.290Z,100.00
2022-11-03T04:10:22.857Z,100.00
2022-11-03T04:13:08.676Z,100.00
2022-11-03T04:15:54.037Z,100.00
2022-11-03T04:18:40.348Z,100.00
2022-11-03T04:21:47.024Z,100.00
2022-11-03T04:24:13.478Z,100.00
2022-11-03T04:26:40.571Z,100.00
2022-11-03T04:29:09.882Z,100.00
2022-11-03T04:31:37.051Z,100.00
2022-11-03T04:34:10.178Z,100.00
2022-11-03T04:36:36.593Z,100.00
2022-11-03T04:39:15.622Z,100.00
2022-11-03T04:41:42.261Z,100.00
2022-11-03T04:44:16.006Z,100.00
2022-11-03T04:46:44.150Z,100.00
2022-11-03T04:49:14.983Z,100.00
2022-11-03T04:51:41.594Z,100.00
2022-11-03T04:54:18.553Z,100.00
2022-11-03T04:56:44.971Z,100.00
2022-11-03T04:59:13.191Z,100.00
2022-11-03T05:01:40.186Z,100.00
2022-11-03T05:04:16.354Z,100.00
2022-11-03T05:06:51.046Z,100.00
2022-11-03T05:09:26.652Z,100.00
2022-11-03T05:11:53.131Z,100.00
2022-11-03T05:14:25.807Z,100.00
2022-11-03T05:16:56.658Z,100.00
2022-11-03T05:19:31.397Z,100.00
2022-11-03T05:22:00.149Z,100.00
2022-11-03T05:24:26.909Z,100.00
2022-11-03T05:26:58.264Z,100.00
2022-11-03T05:29:30.439Z,100.00
2022-11-03T05:31:57.143Z,100.00
2022-11-03T05:34:35.566Z,100.00
2022-11-03T05:37:26.838Z,100.00
2022-11-03T05:39:57.759Z,100.00
2022-11-03T05:42:36.552Z,100.00
2022-11-03T05:45:15.769Z,100.00
2022-11-03T05:47:42.609Z,100.00
2022-11-03T05:50:22.664Z,100.00
2022-11-03T05:52:54.038Z,100.00
2022-11-03T05:55:37.137Z,100.00
2022-11-03T05:58:28.991Z,100.00
2022-11-03T06:00:57.572Z,100.00
2022-11-03T06:03:27.978Z,100.00
2022-11-03T06:05:55.710Z,100.00
2022-11-03T06:08:25.940Z,100.00
2022-11-03T06:10:58.257Z,100.00
2022-11-03T06:13:33.086Z,100.00
2022-11-03T06:16:06.810Z,100.00
2022-11-03T06:18:36.396Z,100.00
2022-11-03T06:21:08.306Z,100.00
2022-11-03T06:23:36.215Z,100.00
2022-11-03T06:26:04.097Z,100.00
2022-11-03T06:28:34.861Z,100.00
2022-11-03T06:31:01.326Z,100.00
2022-11-03T06:33:30.437Z,100.00
2022-11-03T06:36:03.546Z,100.00
2022-11-03T06:38:33.682Z,100.00
2022-11-03T06:41:00.120Z,100.00
2022-11-03T06:43:36.178Z,100.00
2022-11-03T06:46:12.834Z,100.00
2022-11-03T06:48:39.827Z,100.00
2022-11-03T06:51:18.891Z,100.00
2022-11-03T06:53:45.943Z,100.00
2022-11-03T06:56:19.043Z,100.00
2022-11-03T06:58:48.850Z,100.00
2022-11-03T07:01:18.651Z,100.00
2022-11-03T07:03:46.262Z,100.00
2022-11-03T07:06:27.219Z,100.00
2022-11-03T07:08:59.012Z,100.00
2022-11-03T07:11:40.247Z,100.00
2022-11-03T07:14:21.276Z,100.00
2022-11-03T07:17:05.635Z,100.00
2022-11-03T07:19:39.573Z,100.00
2022-11-03T07:22:15.049Z,100.00
2022-11-03T07:24:44.399Z,100.00
2022-11-03T07:27:10.878Z,99.54
2022-11-03T07:29:37.272Z,99.58
2022-11-03T07:32:12.787Z,99.67
2022-11-03T07:34:39.312Z,99.41
2022-11-03T07:37:05.840Z,99.12
2022-11-03T07:39:37.391Z,97.66
2022-11-03T07:42:14.368Z,97.84
2022-11-03T07:44:40.924Z,97.49
2022-11-03T07:47:13.496Z,96.69
2022-11-03T07:49:40.737Z,96.43
2022-11-03T07:52:11.868Z,96.14
2022-11-03T07:54:38.317Z,96.23
2022-11-03T07:57:13.454Z,95.30
2022-11-03T07:59:45.472Z,95.77
2022-11-03T08:02:34.902Z,95.95
2022-11-03T08:05:01.649Z,96.13
2022-11-03T08:07:28.462Z,95.98
2022-11-03T08:09:55.396Z,95.34
2022-11-03T08:12:22.298Z,94.77
2022-11-03T08:14:48.990Z,93.97
2022-11-03T08:17:15.654Z,93.09
2022-11-03T08:19:42.451Z,91.91
2022-11-03T08:22:09.179Z,90.34
2022-11-03T08:24:35.587Z,89.13
2022-11-03T08:27:03.488Z,87.74
2022-11-03T08:29:31.204Z,88.00
2022-11-03T08:31:58.076Z,87.73
2022-11-03T08:34:24.638Z,84.48
2022-11-03T08:36:51.024Z,84.18
2022-11-03T08:39:17.946Z,83.07
2022-11-03T08:41:44.513Z,84.32
2022-11-03T08:44:10.923Z,84.95
2022-11-03T08:46:37.563Z,86.41
2022-11-03T08:49:03.959Z,87.67
2022-11-03T08:51:30.371Z,87.01
2022-11-03T08:53:56.786Z,86.98
2022-11-03T08:56:23.199Z,86.77
2022-11-03T08:58:50.214Z,86.38
2022-11-03T09:01:16.786Z,87.37
2022-11-03T09:03:43.454Z,86.30
2022-11-03T09:06:10.398Z,85.52
2022-11-03T09:11:23.364Z,83.08
2022-11-03T09:13:49.742Z,81.63
2022-11-03T09:16:17.154Z,78.63
2022-11-03T09:18:43.710Z,79.37
2022-11-03T09:21:10.084Z,81.26
2022-11-03T09:23:36.511Z,82.10
2022-11-03T09:26:03.033Z,81.85
2022-11-03T09:28:29.418Z,82.35
2022-11-03T09:30:55.831Z,83.89
2022-11-03T09:33:22.245Z,84.71
2022-11-03T09:35:48.794Z,85.16
2022-11-03T09:38:15.282Z,84.88
2022-11-03T09:40:41.766Z,83.94
2022-11-03T09:43:08.807Z,81.95
2022-11-03T09:45:35.503Z,80.95
2022-11-03T09:48:02.341Z,80.81
2022-11-03T09:50:28.789Z,79.99
2022-11-03T09:52:56.607Z,78.94
2022-11-03T09:55:27.165Z,78.32
2022-11-03T09:57:59.587Z,77.82
2022-11-03T10:00:27.267Z,77.79
2022-11-03T10:02:54.555Z,75.50
2022-11-03T10:05:25.493Z,75.74
2022-11-03T10:08:11.311Z,74.98
2022-11-03T10:10:43.161Z,75.39
2022-11-03T10:13:15.347Z,75.48
2022-11-03T10:15:42.207Z,75.90
2022-11-03T10:18:10.230Z,76.08
2022-11-03T10:20:36.713Z,76.88
2022-11-03T10:23:03.171Z,76.46
2022-11-03T10:25:32.273Z,77.38
2022-11-03T10:28:28.104Z,77.83
2022-11-03T10:31:11.951Z,79.42
2022-11-03T10:33:41.868Z,79.75
2022-11-03T10:36:17.668Z,79.46
2022-11-03T10:38:44.997Z,79.89
2022-11-03T10:41:23.051Z,78.58
2022-11-03T10:44:10.787Z,78.58
2022-11-03T10:46:50.814Z,78.53
2022-11-03T10:49:19.544Z,78.11
2022-11-03T10:51:49.537Z,77.92
2022-11-03T10:54:17.721Z,77.19
2022-11-03T10:56:46.008Z,77.85
2022-11-03T10:59:25.085Z,78.87
2022-11-03T11:01:51.866Z,79.12
2022-11-03T11:04:21.081Z,78.74
2022-11-03T11:06:47.945Z,79.34
2022-11-03T11:09:21.605Z,79.61
2022-11-03T11:12:14.807Z,80.05
2022-11-03T11:14:58.877Z,79.41
2022-11-03T11:17:38.449Z,79.70
2022-11-03T11:20:21.439Z,79.54
2022-11-03T11:22:49.424Z,79.26
2022-11-03T11:25:18.587Z,79.11
2022-11-03T11:27:44.930Z,79.56
2022-11-03T11:30:20.715Z,80.30
2022-11-03T11:32:49.779Z,79.58
2022-11-03T11:35:37.986Z,79.76
2022-11-03T11:38:41.938Z,79.79
2022-11-03T11:41:08.696Z,79.67
2022-11-03T11:43:35.168Z,79.50
2022-11-03T11:46:23.459Z,80.01
2022-11-03T11:48:57.517Z,80.36
2022-11-03T11:51:24.968Z,79.83
2022-11-03T11:54:16.276Z,80.37
2022-11-03T11:56:43.854Z,80.46
2022-11-03T11:59:25.620Z,80.61
2022-11-03T12:01:55.611Z,80.80
2022-11-03T12:04:25.551Z,80.71
2022-11-03T12:06:52.089Z,81.30
2022-11-03T12:09:20.742Z,81.08
2022-11-03T12:11:50.246Z,80.82
2022-11-03T12:14:38.689Z,80.26
2022-11-03T12:17:14.437Z,80.92
2022-11-03T12:19:44.794Z,80.90
2022-11-03T12:22:12.371Z,80.51
2022-11-03T12:24:52.750Z,80.66
2022-11-03T12:27:40.924Z,80.81
2022-11-03T12:30:18.864Z,81.24
2022-11-03T12:32:46.405Z,80.99
2022-11-03T12:35:13.657Z,80.88
2022-11-03T12:37:41.062Z,80.42
2022-11-03T12:40:08.045Z,81.21
2022-11-03T12:42:35.318Z,81.45
2022-11-03T12:45:01.854Z,80.90
2022-11-03T12:47:28.290Z,80.67
2022-11-03T12:49:54.796Z,80.65
2022-11-03T12:52:21.174Z,80.68
2022-11-03T12:54:47.579Z,80.18
2022-11-03T12:57:14.037Z,79.38
2022-11-03T12:59:40.661Z,78.83
2022-11-03T13:02:09.274Z,78.97
2022-11-03T13:04:35.715Z,78.80
2022-11-03T13:07:02.109Z,78.36
2022-11-03T13:09:28.518Z,77.72
2022-11-03T13:12:13.316Z,77.55
2022-11-03T13:14:42.086Z,77.05
2022-11-03T13:17:10.953Z,76.06
2022-11-03T13:19:37.376Z,76.87
2022-11-03T13:22:03.794Z,76.18
2022-11-03T13:24:30.240Z,76.05
2022-11-03T13:26:56.812Z,76.17
2022-11-03T13:29:23.200Z,75.44
2022-11-03T13:31:49.608Z,74.86
2022-11-03T13:34:16.055Z,74.78
2022-11-03T13:36:42.520Z,74.89
2022-11-03T13:39:08.914Z,74.51
2022-11-03T13:41:35.309Z,74.90
2022-11-03T13:44:01.715Z,75.15
2022-11-03T13:46:28.318Z,75.41
2022-11-03T13:51:41.513Z,76.18
2022-11-03T13:59:40.827Z,78.62
2022-11-03T14:04:53.587Z,80.18
2022-11-03T14:07:20.043Z,80.66
2022-11-03T14:09:46.948Z,80.78
2022-11-03T14:12:31.467Z,79.94
2022-11-03T14:15:04.049Z,80.99
2022-11-03T14:17:31.157Z,81.02
2022-11-03T14:20:01.029Z,81.35
2022-11-03T14:22:30.781Z,82.37
2022-11-03T14:24:57.197Z,81.23
2022-11-03T14:27:23.638Z,81.42
2022-11-03T14:29:50.225Z,81.49
2022-11-03T14:32:17.700Z,81.71
2022-11-03T14:34:44.519Z,81.79
2022-11-03T14:37:12.407Z,82.12
2022-11-03T14:39:39.444Z,82.38
2022-11-03T14:42:09.614Z,82.47
2022-11-03T14:44:38.355Z,82.82
2022-11-03T14:47:10.539Z,83.36
2022-11-03T14:49:37.242Z,84.36
2022-11-03T14:52:06.076Z,84.17
2022-11-03T14:54:33.408Z,84.44
2022-11-03T14:56:59.897Z,84.53
2022-11-03T14:59:26.433Z,85.82
2022-11-03T15:01:54.289Z,85.70
2022-11-03T15:04:21.808Z,85.92
2022-11-03T15:06:48.587Z,86.69
2022-11-03T15:09:15.506Z,87.10
2022-11-03T15:11:45.425Z,87.48
2022-11-03T15:14:12.486Z,87.23
2022-11-03T15:16:39.682Z,87.85
2022-11-03T15:19:07.407Z,87.06
2022-11-03T15:21:34.122Z,87.12
2022-11-03T15:26:47.538Z,85.55
2022-11-03T15:29:14.351Z,85.16
2022-11-03T15:31:46.175Z,85.07
2022-11-03T15:34:13.815Z,84.69
2022-11-03T15:36:40.273Z,84.84
2022-11-03T15:39:06.665Z,84.89
2022-11-03T15:41:33.116Z,85.14
2022-11-03T15:43:59.527Z,85.36
2022-11-03T15:46:26.073Z,86.47
2022-11-03T15:48:54.567Z,87.02
2022-11-03T15:51:21.105Z,87.11
2022-11-03T15:53:47.619Z,87.72
2022-11-03T15:56:14.016Z,87.07
2022-11-03T15:58:40.955Z,86.91
2022-11-03T16:01:07.584Z,86.69
2022-11-03T16:03:34.159Z,87.30
2022-11-03T16:06:00.622Z,87.24
2022-11-03T16:08:27.134Z,86.77
2022-11-03T16:10:57.946Z,87.66
2022-11-03T16:13:25.397Z,86.82
2022-11-03T16:15:53.104Z,86.48
2022-11-03T16:18:19.561Z,86.62
2022-11-03T16:20:45.970Z,86.03
2022-11-03T16:23:12.423Z,86.22
2022-11-03T16:25:38.949Z,86.34
2022-11-03T16:28:05.726Z,85.82
2022-11-03T16:30:33.527Z,86.47
2022-11-03T16:32:59.957Z,87.12
2022-11-03T16:35:26.450Z,88.67
2022-11-03T16:37:52.904Z,88.83
2022-11-03T16:40:20.173Z,88.68
2022-11-03T16:42:47.463Z,90.01
2022-11-03T16:45:18.491Z,90.69
2022-11-03T16:47:46.150Z,90.68
2022-11-03T16:50:13.408Z,90.84
2022-11-03T16:52:39.860Z,91.48
2022-11-03T16:55:06.742Z,92.15
2022-11-03T16:57:33.310Z,91.70
2022-11-03T16:59:59.730Z,91.88
2022-11-03T17:02:27.946Z,93.74
2022-11-03T17:04:54.862Z,95.55
2022-11-03T17:07:21.512Z,96.91
2022-11-03T17:09:47.960Z,95.96
2022-11-03T17:12:14.379Z,97.36
2022-11-03T17:14:40.786Z,96.17
2022-11-03T17:17:07.226Z,97.57
2022-11-03T17:19:33.629Z,98.27
2022-11-03T17:22:00.033Z,98.37
2022-11-03T17:24:27.026Z,99.79
2022-11-03T17:26:58.398Z,98.84
2022-11-03T17:29:46.189Z,99.37
2022-11-03T17:32:16.837Z,100.00
2022-11-03T17:34:43.233Z,98.47
2022-11-03T17:37:09.704Z,99.48
2022-11-03T17:39:37.965Z,98.66
2022-11-03T17:42:27.211Z,98.74
2022-11-03T17:44:56.029Z,99.41
2022-11-03T17:47:24.357Z,99.88
2022-11-03T17:49:51.346Z,100.00
2022-11-03T17:52:25.019Z,100.00
2022-11-03T17:54:57.282Z,100.00
2022-11-03T17:57:24.786Z,99.89
2022-11-03T17:59:53.599Z,99.64
2022-11-03T18:02:28.757Z,99.73
2022-11-03T18:05:15.377Z,99.68
2022-11-03T18:07:45.085Z,100.00
2022-11-03T18:10:11.518Z,100.00
2022-11-03T18:13:01.259Z,100.00
2022-11-03T18:15:30.130Z,100.00
2022-11-03T18:17:57.015Z,100.00
2022-11-03T18:20:30.339Z,100.00
2022-11-03T18:23:00.101Z,100.00
2022-11-03T18:25:26.498Z,100.00
2022-11-03T18:27:52.901Z,100.00
2022-11-03T18:30:19.368Z,100.00
2022-11-03T18:32:46.173Z,100.00
2022-11-03T18:35:18.538Z,100.00
2022-11-03T18:37:45.830Z,100.00
2022-11-03T18:40:13.722Z,100.00
2022-11-03T18:42:40.451Z,100.00
2022-11-03T18:45:15.671Z,100.00
2022-11-03T18:47:42.871Z,100.00
2022-11-03T18:50:17.475Z,100.00
2022-11-03T18:52:48.865Z,100.00
2022-11-03T18:55:17.025Z,100.00
2022-11-03T18:57:44.253Z,100.00
2022-11-03T19:00:22.828Z,100.00
2022-11-03T19:02:50.435Z,100.00
2022-11-03T19:05:18.717Z,100.00
2022-11-03T19:07:48.137Z,100.00
2022-11-03T19:10:19.387Z,100.00
2022-11-03T19:12:46.717Z,100.00
2022-11-03T19:15:24.807Z,100.00
2022-11-03T19:17:54.816Z,100.00
2022-11-03T19:20:21.693Z,100.00
2022-11-03T19:22:48.068Z,100.00
2022-11-03T19:25:15.391Z,100.00
2022-11-03T19:27:45.713Z,100.00
2022-11-03T19:30:16.117Z,100.00
2022-11-03T19:32:46.993Z,100.00
2022-11-03T19:35:23.882Z,100.00
2022-11-03T19:37:58.478Z,100.00
2022-11-03T19:40:24.965Z,100.00
2022-11-03T19:42:51.511Z,100.00
2022-11-03T19:45:20.462Z,100.00
2022-11-03T19:50:46.595Z,100.00
2022-11-03T19:53:19.028Z,100.00
2022-11-03T19:55:45.634Z,100.00
2022-11-03T19:58:30.169Z,100.00
2022-11-03T20:00:57.103Z,100.00
2022-11-03T20:03:24.942Z,100.00
2022-11-03T20:05:54.690Z,100.00
2022-11-03T20:08:23.669Z,100.00
2022-11-03T20:10:50.394Z,100.00
2022-11-03T20:13:20.372Z,100.00
2022-11-03T20:15:46.855Z,100.00
2022-11-03T20:18:14.219Z,100.00
2022-11-03T20:20:42.829Z,100.00
2022-11-03T20:23:19.847Z,100.00
2022-11-03T20:25:46.565Z,100.00
2022-11-03T20:28:28.343Z,100.00
2022-11-03T20:31:03.603Z,99.90
2022-11-03T20:33:30.402Z,100.00
2022-11-03T20:35:57.363Z,100.00
2022-11-03T20:38:25.302Z,100.00
2022-11-03T20:40:58.539Z,100.00
2022-11-03T20:43:29.104Z,100.00
2022-11-03T20:45:56.148Z,100.00
2022-11-03T20:48:23.313Z,100.00
2022-11-03T20:50:50.695Z,100.00
2022-11-03T20:53:19.396Z,100.00
2022-11-03T20:55:46.166Z,100.00
2022-11-03T20:58:14.877Z,100.00
2022-11-03T21:00:42.537Z,100.00
2022-11-03T21:06:16.589Z,100.00
2022-11-03T21:08:44.655Z,100.00
2022-11-03T21:11:23.353Z,99.83
2022-11-03T21:13:55.937Z,95.41
2022-11-03T21:16:42.223Z,94.29
2022-11-03T21:19:41.663Z,93.26
2022-11-03T21:22:45.958Z,92.04
2022-11-03T21:25:06.438Z,92.72
2022-11-03T21:27:33.825Z,92.20
2022-11-03T21:30:01.137Z,90.80
2022-11-03T21:32:27.882Z,89.00
2022-11-03T21:34:54.343Z,88.81
2022-11-03T21:37:20.860Z,90.34
2022-11-03T21:39:47.599Z,88.68
2022-11-03T21:42:33.970Z,87.71
2022-11-03T21:45:00.508Z,86.96
2022-11-03T21:47:27.268Z,87.71
2022-11-03T21:49:53.834Z,87.29
2022-11-03T21:52:34.582Z,86.75
2022-11-03T21:55:02.910Z,86.27
2022-11-03T21:57:29.728Z,85.37
2022-11-03T21:59:59.289Z,85.16
2022-11-03T22:02:27.202Z,85.91
2022-11-03T22:04:56.925Z,85.48
2022-11-03T22:07:23.569Z,85.94
2022-11-03T22:09:49.960Z,85.89
2022-11-03T22:12:16.387Z,85.36
2022-11-03T22:15:01.247Z,85.57
2022-11-03T22:17:27.857Z,86.29
2022-11-03T22:20:13.015Z,85.34
2022-11-03T22:22:57.746Z,84.31
2022-11-03T22:25:42.587Z,85.29
2022-11-03T22:28:14.089Z,85.73
2022-11-03T22:30:59.858Z,86.55
2022-11-03T22:33:26.746Z,87.58
2022-11-03T22:36:20.222Z,85.37
2022-11-03T22:39:06.522Z,84.33
2022-11-03T22:41:51.347Z,84.39
2022-11-03T22:44:36.139Z,84.60
2022-11-03T22:47:03.047Z,84.57
2022-11-03T22:49:29.851Z,84.63
2022-11-03T22:51:56.249Z,85.07
2022-11-03T22:54:22.693Z,85.45
2022-11-03T22:56:49.089Z,85.86
2022-11-03T22:59:15.470Z,85.09
2022-11-03T23:01:42.007Z,84.72
2022-11-03T23:04:08.579Z,86.06
2022-11-03T23:06:38.721Z,84.09
2022-11-03T23:09:05.463Z,85.14
2022-11-03T23:11:32.563Z,84.14
2022-11-03T23:14:04.443Z,85.35
2022-11-03T23:16:34.235Z,85.81
2022-11-03T23:19:19.385Z,87.44
2022-11-03T23:21:48.102Z,84.91
2022-11-03T23:24:33.712Z,84.70
2022-11-03T23:27:00.663Z,85.16
2022-11-03T23:29:28.090Z,86.42
2022-11-03T23:31:55.075Z,85.90
2022-11-03T23:34:21.954Z,88.64
2022-11-03T23:36:48.460Z,88.10
2022-11-03T23:39:16.832Z,87.91
2022-11-03T23:41:44.225Z,85.46
2022-11-03T23:44:15.316Z,87.28
2022-11-03T23:47:01.635Z,88.50
2022-11-03T23:49:28.650Z,90.54
2022-11-03T23:51:55.059Z,92.17
2022-11-03T23:54:21.524Z,92.96
2022-11-03T23:57:06.902Z,95.43
2022-11-03T23:59:34.212Z,95.51
